createdAt,value
2022-10-12T00:02:56.378Z,79.35
2022-10-12T00:07:58.194Z,79.62
2022-10-12T00:13:00.742Z,79.49
2022-10-12T00:18:02.901Z,78.24
2022-10-12T00:23:04.862Z,78.45
2022-10-12T00:28:07.933Z,78.47
2022-10-12T00:33:09.974Z,78.61
2022-10-12T00:38:11.930Z,79.02
2022-10-12T00:43:26.032Z,79.34
2022-10-12T00:48:28.599Z,79.67
2022-10-12T00:53:38.117Z,79.81
2022-10-12T00:58:55.010Z,80.08
2022-10-12T01:04:07.318Z,80.16
2022-10-12T01:09:09.065Z,80.16
2022-10-12T01:14:11.705Z,80.05
2022-10-12T01:19:34.780Z,79.81
2022-10-12T01:24:46.821Z,79.07
2022-10-12T01:30:31.007Z,78.38
2022-10-12T01:35:40.958Z,78.23
2022-10-12T01:40:55.137Z,78.22
2022-10-12T01:45:56.947Z,78.39
2022-10-12T01:51:03.326Z,78.55
2022-10-12T01:56:21.165Z,78.80
2022-10-12T02:01:50.348Z,79.10
2022-10-12T02:07:04.132Z,79.19
2022-10-12T02:12:22.313Z,79.13
2022-10-12T02:17:24.104Z,78.50
2022-10-12T02:22:35.692Z,78.29
2022-10-12T02:27:43.312Z,77.72
2022-10-12T02:32:56.844Z,78.00
2022-10-12T02:38:09.822Z,78.36
2022-10-12T02:43:18.611Z,78.93
2022-10-12T02:48:23.924Z,78.51
2022-10-12T02:53:33.963Z,77.84
2022-10-12T02:58:49.949Z,78.36
2022-10-12T03:03:51.705Z,79.25
2022-10-12T03:08:57.022Z,79.41
2022-10-12T03:13:59.146Z,79.41
2022-10-12T03:19:00.882Z,79.00
2022-10-12T03:24:03.025Z,79.05
2022-10-12T03:29:05.554Z,79.37
2022-10-12T03:34:07.425Z,79.23
2022-10-12T03:39:09.185Z,78.85
2022-10-12T03:44:10.948Z,79.01
2022-10-12T03:49:12.675Z,78.83
2022-10-12T03:54:14.492Z,79.36
2022-10-12T03:59:16.534Z,79.53
2022-10-12T04:04:24.824Z,79.50
2022-10-12T04:09:26.787Z,78.98
2022-10-12T04:14:28.560Z,78.23
2022-10-12T04:19:30.732Z,77.47
2022-10-12T04:24:32.603Z,77.02
2022-10-12T04:29:34.594Z,77.40
2022-10-12T04:34:36.818Z,77.61
2022-10-12T04:39:38.581Z,77.72
2022-10-12T04:44:40.310Z,76.90
2022-10-12T04:49:42.115Z,76.91
2022-10-12T04:54:43.874Z,76.24
2022-10-12T04:59:45.723Z,76.25
2022-10-12T05:04:47.450Z,75.23
2022-10-12T05:09:49.401Z,75.14
2022-10-12T05:14:51.198Z,75.33
2022-10-12T05:19:52.921Z,75.00
2022-10-12T05:24:54.644Z,75.84
2022-10-12T05:29:56.559Z,76.50
2022-10-12T05:34:58.310Z,77.06
2022-10-12T05:40:07.462Z,77.97
2022-10-12T05:45:09.962Z,77.72
2022-10-12T05:50:12.077Z,77.46
2022-10-12T05:55:13.909Z,78.05
2022-10-12T06:00:15.777Z,77.92
2022-10-12T06:05:17.913Z,77.70
2022-10-12T06:10:19.702Z,77.63
2022-10-12T06:15:21.476Z,77.60
2022-10-12T06:20:23.434Z,77.84
2022-10-12T06:25:25.290Z,78.22
2022-10-12T06:30:27.243Z,78.78
2022-10-12T06:35:28.925Z,79.04
2022-10-12T06:40:30.697Z,79.02
2022-10-12T06:45:32.935Z,79.23
2022-10-12T06:50:35.378Z,79.29
2022-10-12T06:55:40.209Z,79.59
2022-10-12T07:00:42.092Z,79.50
2022-10-12T07:05:59.518Z,79.25
2022-10-12T07:11:04.061Z,79.14
2022-10-12T07:16:06.536Z,78.93
2022-10-12T07:21:08.364Z,78.84
2022-10-12T07:26:30.954Z,78.62
2022-10-12T07:31:43.268Z,77.87
2022-10-12T07:36:58.723Z,77.78
2022-10-12T07:42:01.595Z,78.51
2022-10-12T07:47:03.448Z,78.58
2022-10-12T07:52:05.201Z,78.41
2022-10-12T07:57:07.053Z,77.35
2022-10-12T08:02:11.739Z,77.01
2022-10-12T08:07:13.467Z,76.12
2022-10-12T08:12:15.771Z,75.24
2022-10-12T08:17:17.689Z,74.11
2022-10-12T08:22:19.673Z,73.82
2022-10-12T08:27:21.419Z,73.18
2022-10-12T08:32:23.304Z,72.05
2022-10-12T08:37:25.239Z,71.74
2022-10-12T08:42:44.791Z,70.47
2022-10-12T08:47:52.875Z,70.85
2022-10-12T08:53:06.908Z,70.04
2022-10-12T08:58:44.938Z,67.24
2022-10-12T09:04:09.701Z,65.39
2022-10-12T09:09:40.058Z,64.79
2022-10-12T09:14:45.335Z,65.78
2022-10-12T09:19:47.921Z,61.64
2022-10-12T09:24:51.140Z,60.13
2022-10-12T09:29:57.995Z,60.22
2022-10-12T09:35:17.230Z,58.98
2022-10-12T09:40:33.449Z,60.91
2022-10-12T09:45:36.179Z,60.81
2022-10-12T09:50:59.135Z,61.82
2022-10-12T09:56:24.214Z,57.83
2022-10-12T10:01:29.481Z,59.63
2022-10-12T10:06:31.597Z,59.71
2022-10-12T10:11:33.441Z,58.47
2022-10-12T10:16:48.214Z,56.97
2022-10-12T10:21:49.936Z,56.81
2022-10-12T10:26:59.261Z,56.97
2022-10-12T10:32:29.919Z,55.66
2022-10-12T10:37:33.400Z,54.14
2022-10-12T10:42:35.294Z,48.33
2022-10-12T10:47:46.316Z,48.22
2022-10-12T10:52:58.556Z,47.29
2022-10-12T10:58:12.392Z,48.95
2022-10-12T11:03:28.828Z,49.13
2022-10-12T11:08:33.705Z,50.48
2022-10-12T11:13:44.362Z,51.72
2022-10-12T11:18:54.384Z,50.55
2022-10-12T11:24:12.597Z,51.34
2022-10-12T11:29:18.113Z,51.07
2022-10-12T11:34:23.168Z,49.85
2022-10-12T11:39:33.968Z,50.56
2022-10-12T11:44:43.036Z,49.81
2022-10-12T11:49:55.461Z,48.05
2022-10-12T11:55:24.977Z,47.95
2022-10-12T12:01:21.127Z,47.94
2022-10-12T12:06:43.915Z,46.30
2022-10-12T12:12:13.804Z,46.17
2022-10-12T12:17:28.097Z,46.58
2022-10-12T12:22:52.384Z,45.87
2022-10-12T12:27:56.152Z,47.43
2022-10-12T12:33:26.808Z,46.28
2022-10-12T12:38:31.528Z,47.37
2022-10-12T12:43:33.200Z,45.40
2022-10-12T12:48:47.128Z,46.15
2022-10-12T12:54:15.401Z,47.01
2022-10-12T12:59:56.137Z,46.49
2022-10-12T13:05:27.999Z,45.77
2022-10-12T13:10:42.369Z,45.52
2022-10-12T13:16:02.854Z,45.01
2022-10-12T13:21:08.121Z,43.01
2022-10-12T13:26:15.741Z,42.67
2022-10-12T13:31:27.175Z,43.73
2022-10-12T13:36:46.697Z,44.29
2022-10-12T13:41:51.568Z,44.46
2022-10-12T13:46:59.327Z,44.80
2022-10-12T13:52:24.158Z,44.78
2022-10-12T13:57:37.197Z,45.93
2022-10-12T14:02:38.974Z,46.15
2022-10-12T14:07:44.199Z,46.59
2022-10-12T14:12:53.296Z,46.68
2022-10-12T14:17:55.098Z,47.18
2022-10-12T14:23:01.960Z,48.62
2022-10-12T14:28:06.797Z,50.18
2022-10-12T14:33:21.686Z,50.13
2022-10-12T14:38:35.933Z,47.84
2022-10-12T14:44:10.988Z,47.58
2022-10-12T14:49:20.026Z,46.94
2022-10-12T14:54:22.342Z,47.74
2022-10-12T14:59:24.239Z,48.05
2022-10-12T15:04:25.978Z,48.78
2022-10-12T15:09:27.737Z,49.18
2022-10-12T15:14:29.818Z,48.85
2022-10-12T15:19:32.064Z,49.64
2022-10-12T15:24:34.308Z,49.81
2022-10-12T15:29:36.172Z,49.61
2022-10-12T15:34:46.718Z,49.71
2022-10-12T15:39:49.730Z,50.42
2022-10-12T15:44:51.405Z,51.36
2022-10-12T15:49:53.536Z,51.98
2022-10-12T15:54:57.050Z,52.29
2022-10-12T15:59:58.972Z,52.80
2022-10-12T16:05:06.858Z,53.60
2022-10-12T16:10:13.869Z,55.11
2022-10-12T16:15:24.140Z,54.59
2022-10-12T16:20:27.992Z,57.14
2022-10-12T16:25:33.460Z,58.37
2022-10-12T16:30:35.403Z,59.25
2022-10-12T16:35:40.149Z,60.97
2022-10-12T16:40:56.245Z,63.18
2022-10-12T16:45:57.970Z,65.26
2022-10-12T16:50:59.787Z,66.00
2022-10-12T16:56:02.459Z,66.35
2022-10-12T17:01:12.420Z,66.29
2022-10-12T17:06:14.359Z,65.92
2022-10-12T17:11:18.765Z,64.82
2022-10-12T17:16:49.699Z,65.14
2022-10-12T17:21:52.570Z,65.48
2022-10-12T17:26:55.858Z,66.04
2022-10-12T17:31:58.454Z,67.80
2022-10-12T17:37:06.458Z,69.36
2022-10-12T17:42:08.554Z,70.00
2022-10-12T17:47:12.150Z,69.85
2022-10-12T17:52:14.019Z,70.48
2022-10-12T17:57:16.392Z,70.79
2022-10-12T18:02:18.665Z,70.67
2022-10-12T18:07:20.770Z,71.45
2022-10-12T18:12:29.464Z,72.12
2022-10-12T18:17:34.195Z,72.40
2022-10-12T18:22:36.002Z,72.68
2022-10-12T18:27:37.996Z,73.22
2022-10-12T18:32:39.599Z,73.84
2022-10-12T18:37:41.343Z,74.10
2022-10-12T18:42:49.056Z,74.08
2022-10-12T18:47:51.336Z,73.99
2022-10-12T18:52:56.274Z,73.99
2022-10-12T18:57:58.035Z,74.27
2022-10-12T19:03:00.352Z,74.56
2022-10-12T19:08:02.131Z,75.09
2022-10-12T19:13:03.846Z,75.44
2022-10-12T19:18:10.029Z,75.92
2022-10-12T19:23:11.686Z,75.98
2022-10-12T19:28:13.463Z,76.03
2022-10-12T19:33:18.212Z,75.99
2022-10-12T19:38:21.856Z,75.68
2022-10-12T19:43:23.885Z,75.92
2022-10-12T19:48:27.227Z,76.30
2022-10-12T19:53:29.793Z,76.94
2022-10-12T19:58:32.639Z,77.57
2022-10-12T20:03:35.513Z,77.94
2022-10-12T20:08:38.862Z,78.28
2022-10-12T20:13:40.658Z,78.62
2022-10-12T20:18:42.810Z,79.02
2022-10-12T20:23:45.427Z,79.23
2022-10-12T20:28:47.919Z,79.30
2022-10-12T20:33:53.708Z,79.40
2022-10-12T20:38:57.601Z,79.42
2022-10-12T20:44:00.922Z,79.63
2022-10-12T20:49:04.123Z,79.75
2022-10-12T20:54:08.790Z,79.80
2022-10-12T20:59:11.371Z,79.69
2022-10-12T21:04:13.837Z,79.49
2022-10-12T21:09:16.346Z,79.42
2022-10-12T21:14:18.043Z,79.50
2022-10-12T21:19:20.597Z,79.76
2022-10-12T21:24:22.366Z,79.98
2022-10-12T21:29:24.185Z,79.92
2022-10-12T21:34:26.336Z,79.90
2022-10-12T21:39:29.478Z,79.87
2022-10-12T21:44:31.217Z,79.96
2022-10-12T21:49:33.250Z,79.64
2022-10-12T21:54:34.881Z,78.97
2022-10-12T21:59:36.881Z,78.95
2022-10-12T22:04:38.689Z,79.31
2022-10-12T22:09:40.566Z,79.53
2022-10-12T22:14:42.561Z,79.66
2022-10-12T22:19:45.031Z,79.97
2022-10-12T22:24:47.133Z,80.15
2022-10-12T22:29:48.944Z,80.18
2022-10-12T22:34:52.219Z,80.65
2022-10-12T22:39:54.389Z,81.18
2022-10-12T22:44:56.749Z,81.43
2022-10-12T22:49:58.800Z,81.43
2022-10-12T22:55:00.913Z,81.33
2022-10-12T23:00:02.783Z,80.98
2022-10-12T23:05:07.022Z,80.84
2022-10-12T23:10:09.216Z,80.69
2022-10-12T23:15:12.308Z,80.72
2022-10-12T23:20:16.032Z,80.94
2022-10-12T23:25:20.987Z,80.60
2022-10-12T23:30:29.204Z,80.14
2022-10-12T23:35:32.984Z,80.10
2022-10-12T23:40:39.413Z,80.06
2022-10-12T23:45:43.888Z,79.79
2022-10-12T23:50:47.329Z,79.22
2022-10-12T23:55:50.658Z,78.60
